Strona główna
METAR-TAF:

METAR-TAF

Lotnisko :

Port lotniczy Guilin-Liangjiang

Guilin, Chiny

Szerokość geograficzna: 25-20N, Długość geograficzna: 110-18E, wysokość: 166 m

Aktualna obserwacja pogody

Raport powstał 10 minut temu, godzina 12:00 UTC
Wiatr 6 kt od północny wschód
Temperatura 30°C
Wilgotność 70%
Ciśnienie 1002 hPa
Widzialność 10 km lub więcej
Rozproszone chmury na wysokości 4600 ft
Zachmurzenie całkowite na wysokości 6600 ft

METAR: ZGKL 161200Z 04003MPS 9999 SCT046 OVC066 30/24 Q1002 NOSIG

czas: 20:10 (12:10 UTC)

Prognoza

Raport powstał 2 godziny i 59 minut temu, godzina 09:11 UTC
Prognoza ważna od 16 godzina 12 UTC do 17 godzina 12 UTC
Wiatr 8 kt od północny wschód
Widzialność 10 km lub więcej
Rozproszone chmury na wysokości 2000 ft
Przerywane chmury na wysokości 6000 ft
Przejściowo
od 17 godzina 07 UTC do 17 godzina 12 UTC
Mało chmury na wysokości 4000 ft, Cumulonimbus.
Przerywane chmury na wysokości 4000 ft

TAF: ZGKL 160911Z 1612/1712 05004MPS 9999 SCT020 BKN060 TX33/1708Z TN25/1622Z TEMPO 1707/1712 FEW040CB BKN040

Obserwacja i prognoza pogody dla ponad 4000 lotnisk (raport METAR i TAF).

Dostępne stacje oznaczono żółtymi i czerwonymi punktami na mapie.

Najedź kursorem aby zobaczyć nazwę stacji.

Kliknij aby zobaczyć obserwacje i prognozy pogody.

Aby zmienić mapę: kliknij na zielony przycisk z czarnym krzyżykiem, aby powiększyć; na zielony przycisk z myślnikiem, aby pomniejszyć; na zielone strzałki, aby przejść do map sąsiednich.


METAR-TAF: